sensor_id;sensor_type;location;lat;lon;timestamp;P1;durP1;ratioP1;P2;durP2;ratioP2
70303;SDS011;57712;48.752;11.348;2022-08-05T00:01:29;7.95;;;3.85;;
70303;SDS011;57712;48.752;11.348;2022-08-05T00:04:02;8.00;;;3.50;;
70303;SDS011;57712;48.752;11.348;2022-08-05T00:06:30;7.47;;;3.90;;
70303;SDS011;57712;48.752;11.348;2022-08-05T00:09:01;7.80;;;3.87;;
70303;SDS011;57712;48.752;11.348;2022-08-05T00:11:28;7.22;;;3.20;;
70303;SDS011;57712;48.752;11.348;2022-08-05T00:14:00;6.78;;;3.70;;
70303;SDS011;57712;48.752;11.348;2022-08-05T00:16:42;6.90;;;3.55;;
70303;SDS011;57712;48.752;11.348;2022-08-05T00:19:18;6.40;;;3.70;;
70303;SDS011;57712;48.752;11.348;2022-08-05T00:21:47;5.40;;;3.00;;
70303;SDS011;57712;48.752;11.348;2022-08-05T00:24:14;6.32;;;3.45;;
70303;SDS011;57712;48.752;11.348;2022-08-05T00:26:44;8.88;;;3.40;;
70303;SDS011;57712;48.752;11.348;2022-08-05T00:29:17;7.25;;;3.45;;
70303;SDS011;57712;48.752;11.348;2022-08-05T00:31:50;6.70;;;3.70;;
70303;SDS011;57712;48.752;11.348;2022-08-05T00:34:36;9.53;;;3.70;;
70303;SDS011;57712;48.752;11.348;2022-08-05T00:37:23;6.93;;;3.25;;
70303;SDS011;57712;48.752;11.348;2022-08-05T00:39:50;6.45;;;3.75;;
70303;SDS011;57712;48.752;11.348;2022-08-05T00:42:30;5.40;;;3.40;;
70303;SDS011;57712;48.752;11.348;2022-08-05T00:44:58;6.95;;;3.67;;
70303;SDS011;57712;48.752;11.348;2022-08-05T00:47:25;8.33;;;3.87;;
70303;SDS011;57712;48.752;11.348;2022-08-05T00:50:12;5.38;;;3.30;;
70303;SDS011;57712;48.752;11.348;2022-08-05T00:52:41;7.05;;;3.83;;
70303;SDS011;57712;48.752;11.348;2022-08-05T00:55:11;6.90;;;3.85;;
70303;SDS011;57712;48.752;11.348;2022-08-05T00:57:39;6.00;;;4.22;;
70303;SDS011;57712;48.752;11.348;2022-08-05T01:00:25;5.63;;;3.57;;
70303;SDS011;57712;48.752;11.348;2022-08-05T01:02:53;6.85;;;3.83;;
70303;SDS011;57712;48.752;11.348;2022-08-05T01:05:21;8.45;;;4.20;;
70303;SDS011;57712;48.752;11.348;2022-08-05T01:07:48;7.93;;;3.90;;
70303;SDS011;57712;48.752;11.348;2022-08-05T01:13:25;9.07;;;4.10;;
70303;SDS011;57712;48.752;11.348;2022-08-05T01:16:18;6.97;;;3.92;;
70303;SDS011;57712;48.752;11.348;2022-08-05T01:18:53;6.00;;;4.00;;
70303;SDS011;57712;48.752;11.348;2022-08-05T01:25:03;5.63;;;3.80;;
70303;SDS011;57712;48.752;11.348;2022-08-05T01:33:48;6.88;;;4.10;;
70303;SDS011;57712;48.752;11.348;2022-08-05T01:36:21;6.38;;;3.80;;
70303;SDS011;57712;48.752;11.348;2022-08-05T01:38:53;7.28;;;4.07;;
70303;SDS011;57712;48.752;11.348;2022-08-05T01:41:25;6.53;;;3.77;;
70303;SDS011;57712;48.752;11.348;2022-08-05T01:43:54;5.88;;;3.60;;
70303;SDS011;57712;48.752;11.348;2022-08-05T01:46:22;6.70;;;3.65;;
70303;SDS011;57712;48.752;11.348;2022-08-05T01:49:11;6.60;;;3.72;;
70303;SDS011;57712;48.752;11.348;2022-08-05T01:51:50;7.63;;;3.58;;
70303;SDS011;57712;48.752;11.348;2022-08-05T01:54:20;7.63;;;3.50;;
70303;SDS011;57712;48.752;11.348;2022-08-05T01:56:52;6.80;;;3.95;;
70303;SDS011;57712;48.752;11.348;2022-08-05T01:59:41;5.90;;;4.35;;
70303;SDS011;57712;48.752;11.348;2022-08-05T02:02:12;8.75;;;3.72;;
70303;SDS011;57712;48.752;11.348;2022-08-05T02:04:41;9.88;;;4.55;;
70303;SDS011;57712;48.752;11.348;2022-08-05T02:07:14;5.90;;;3.93;;
70303;SDS011;57712;48.752;11.348;2022-08-05T02:09:47;8.40;;;4.00;;
70303;SDS011;57712;48.752;11.348;2022-08-05T02:15:21;6.78;;;3.67;;
70303;SDS011;57712;48.752;11.348;2022-08-05T02:21:11;6.40;;;3.60;;
70303;SDS011;57712;48.752;11.348;2022-08-05T02:23:41;7.35;;;3.60;;
70303;SDS011;57712;48.752;11.348;2022-08-05T02:26:12;5.90;;;3.80;;
70303;SDS011;57712;48.752;11.348;2022-08-05T02:28:46;9.05;;;3.63;;
70303;SDS011;57712;48.752;11.348;2022-08-05T02:31:21;7.07;;;4.53;;
70303;SDS011;57712;48.752;11.348;2022-08-05T02:34:00;6.97;;;4.00;;
70303;SDS011;57712;48.752;11.348;2022-08-05T02:36:30;9.40;;;4.50;;
70303;SDS011;57712;48.752;11.348;2022-08-05T02:39:00;6.90;;;4.93;;
70303;SDS011;57712;48.752;11.348;2022-08-05T02:41:33;7.63;;;4.10;;
70303;SDS011;57712;48.752;11.348;2022-08-05T02:44:22;7.22;;;4.05;;
70303;SDS011;57712;48.752;11.348;2022-08-05T02:46:50;6.97;;;4.90;;
70303;SDS011;57712;48.752;11.348;2022-08-05T02:49:27;6.78;;;3.90;;
70303;SDS011;57712;48.752;11.348;2022-08-05T02:52:03;7.07;;;4.45;;
70303;SDS011;57712;48.752;11.348;2022-08-05T02:54:33;9.00;;;4.10;;
70303;SDS011;57712;48.752;11.348;2022-08-05T02:57:04;6.47;;;3.67;;
70303;SDS011;57712;48.752;11.348;2022-08-05T02:59:53;7.20;;;4.53;;
70303;SDS011;57712;48.752;11.348;2022-08-05T03:02:22;9.18;;;4.53;;
70303;SDS011;57712;48.752;11.348;2022-08-05T03:04:55;10.00;;;5.03;;
70303;SDS011;57712;48.752;11.348;2022-08-05T03:07:23;8.70;;;4.90;;
70303;SDS011;57712;48.752;11.348;2022-08-05T03:10:13;6.88;;;4.90;;
70303;SDS011;57712;48.752;11.348;2022-08-05T03:12:49;9.60;;;5.60;;
70303;SDS011;57712;48.752;11.348;2022-08-05T03:15:17;9.90;;;5.70;;
70303;SDS011;57712;48.752;11.348;2022-08-05T03:17:43;7.95;;;5.10;;
70303;SDS011;57712;48.752;11.348;2022-08-05T03:20:10;9.23;;;5.75;;
70303;SDS011;57712;48.752;11.348;2022-08-05T03:22:38;9.52;;;5.75;;
70303;SDS011;57712;48.752;11.348;2022-08-05T03:25:15;9.90;;;6.13;;
70303;SDS011;57712;48.752;11.348;2022-08-05T03:28:04;9.80;;;5.80;;
70303;SDS011;57712;48.752;11.348;2022-08-05T03:30:34;13.40;;;7.28;;
70303;SDS011;57712;48.752;11.348;2022-08-05T03:33:02;11.43;;;6.63;;
70303;SDS011;57712;48.752;11.348;2022-08-05T03:35:31;11.57;;;7.03;;
70303;SDS011;57712;48.752;11.348;2022-08-05T03:37:59;9.50;;;6.43;;
70303;SDS011;57712;48.752;11.348;2022-08-05T03:40:26;8.35;;;6.40;;
70303;SDS011;57712;48.752;11.348;2022-08-05T03:42:57;9.13;;;5.72;;
70303;SDS011;57712;48.752;11.348;2022-08-05T03:45:45;8.57;;;5.65;;
70303;SDS011;57712;48.752;11.348;2022-08-05T03:48:23;7.82;;;5.28;;
70303;SDS011;57712;48.752;11.348;2022-08-05T03:51:00;7.20;;;5.20;;
70303;SDS011;57712;48.752;11.348;2022-08-05T03:56:45;7.75;;;5.13;;
70303;SDS011;57712;48.752;11.348;2022-08-05T03:59:22;7.47;;;4.95;;
70303;SDS011;57712;48.752;11.348;2022-08-05T04:02:11;9.43;;;5.88;;
70303;SDS011;57712;48.752;11.348;2022-08-05T04:05:00;9.00;;;5.20;;
70303;SDS011;57712;48.752;11.348;2022-08-05T04:07:28;7.53;;;5.10;;
70303;SDS011;57712;48.752;11.348;2022-08-05T04:09:58;7.60;;;5.78;;
70303;SDS011;57712;48.752;11.348;2022-08-05T04:12:28;8.40;;;5.78;;
70303;SDS011;57712;48.752;11.348;2022-08-05T04:14:56;9.30;;;5.35;;
70303;SDS011;57712;48.752;11.348;2022-08-05T04:17:24;7.70;;;5.47;;
70303;SDS011;57712;48.752;11.348;2022-08-05T04:20:17;7.78;;;6.03;;
70303;SDS011;57712;48.752;11.348;2022-08-05T04:22:48;8.73;;;5.82;;
70303;SDS011;57712;48.752;11.348;2022-08-05T04:25:15;6.63;;;4.95;;
70303;SDS011;57712;48.752;11.348;2022-08-05T04:27:42;8.02;;;5.47;;
70303;SDS011;57712;48.752;11.348;2022-08-05T04:30:23;10.27;;;5.67;;
70303;SDS011;57712;48.752;11.348;2022-08-05T04:32:51;8.95;;;5.55;;
70303;SDS011;57712;48.752;11.348;2022-08-05T04:35:18;10.23;;;5.75;;
70303;SDS011;57712;48.752;11.348;2022-08-05T04:37:45;8.40;;;5.68;;
70303;SDS011;57712;48.752;11.348;2022-08-05T04:40:37;8.55;;;5.80;;
70303;SDS011;57712;48.752;11.348;2022-08-05T04:43:16;10.20;;;5.27;;
70303;SDS011;57712;48.752;11.348;2022-08-05T04:45:47;15.13;;;7.13;;
70303;SDS011;57712;48.752;11.348;2022-08-05T04:48:20;12.77;;;6.57;;
70303;SDS011;57712;48.752;11.348;2022-08-05T04:50:53;14.07;;;6.90;;
70303;SDS011;57712;48.752;11.348;2022-08-05T04:53:29;12.18;;;6.53;;
70303;SDS011;57712;48.752;11.348;2022-08-05T04:56:00;12.27;;;6.77;;
70303;SDS011;57712;48.752;11.348;2022-08-05T04:58:47;13.60;;;6.57;;
70303;SDS011;57712;48.752;11.348;2022-08-05T05:01:14;16.17;;;7.60;;
70303;SDS011;57712;48.752;11.348;2022-08-05T05:04:00;13.00;;;6.50;;
70303;SDS011;57712;48.752;11.348;2022-08-05T05:06:29;11.05;;;6.55;;
70303;SDS011;57712;48.752;11.348;2022-08-05T05:09:09;8.83;;;5.87;;
70303;SDS011;57712;48.752;11.348;2022-08-05T05:11:42;8.40;;;5.60;;
70303;SDS011;57712;48.752;11.348;2022-08-05T05:14:22;7.70;;;5.20;;
70303;SDS011;57712;48.752;11.348;2022-08-05T05:16:57;8.65;;;5.35;;
70303;SDS011;57712;48.752;11.348;2022-08-05T05:19:28;10.02;;;5.82;;
70303;SDS011;57712;48.752;11.348;2022-08-05T05:22:10;8.50;;;5.80;;
70303;SDS011;57712;48.752;11.348;2022-08-05T05:24:50;8.50;;;5.72;;
70303;SDS011;57712;48.752;11.348;2022-08-05T05:27:24;7.85;;;6.32;;
70303;SDS011;57712;48.752;11.348;2022-08-05T05:30:10;7.63;;;5.78;;
70303;SDS011;57712;48.752;11.348;2022-08-05T05:32:55;9.07;;;5.82;;
70303;SDS011;57712;48.752;11.348;2022-08-05T05:35:26;7.50;;;5.57;;
70303;SDS011;57712;48.752;11.348;2022-08-05T05:37:55;8.20;;;5.97;;
70303;SDS011;57712;48.752;11.348;2022-08-05T05:40:28;6.63;;;4.93;;
70303;SDS011;57712;48.752;11.348;2022-08-05T05:42:58;7.57;;;5.53;;
70303;SDS011;57712;48.752;11.348;2022-08-05T05:45:27;10.43;;;5.47;;
70303;SDS011;57712;48.752;11.348;2022-08-05T05:47:56;7.80;;;5.43;;
70303;SDS011;57712;48.752;11.348;2022-08-05T05:50:32;7.53;;;5.05;;
70303;SDS011;57712;48.752;11.348;2022-08-05T05:53:09;7.85;;;5.68;;
70303;SDS011;57712;48.752;11.348;2022-08-05T05:55:48;6.45;;;4.90;;
70303;SDS011;57712;48.752;11.348;2022-08-05T05:58:25;7.25;;;5.13;;
70303;SDS011;57712;48.752;11.348;2022-08-05T06:00:58;8.53;;;5.03;;
70303;SDS011;57712;48.752;11.348;2022-08-05T06:03:40;8.40;;;5.60;;
70303;SDS011;57712;48.752;11.348;2022-08-05T06:06:27;7.97;;;5.43;;
70303;SDS011;57712;48.752;11.348;2022-08-05T06:08:58;7.72;;;5.60;;
70303;SDS011;57712;48.752;11.348;2022-08-05T06:11:24;7.68;;;5.78;;
70303;SDS011;57712;48.752;11.348;2022-08-05T06:13:54;9.10;;;5.43;;
70303;SDS011;57712;48.752;11.348;2022-08-05T06:16:21;10.90;;;5.88;;
70303;SDS011;57712;48.752;11.348;2022-08-05T06:18:57;8.07;;;5.95;;
70303;SDS011;57712;48.752;11.348;2022-08-05T06:21:26;9.98;;;5.90;;
70303;SDS011;57712;48.752;11.348;2022-08-05T06:24:07;7.93;;;5.72;;
70303;SDS011;57712;48.752;11.348;2022-08-05T06:26:41;10.60;;;6.13;;
70303;SDS011;57712;48.752;11.348;2022-08-05T06:29:18;9.73;;;4.97;;
70303;SDS011;57712;48.752;11.348;2022-08-05T06:32:08;7.05;;;5.32;;
70303;SDS011;57712;48.752;11.348;2022-08-05T06:34:51;9.13;;;5.68;;
70303;SDS011;57712;48.752;11.348;2022-08-05T06:37:22;8.15;;;5.68;;
70303;SDS011;57712;48.752;11.348;2022-08-05T06:40:09;9.10;;;5.67;;
70303;SDS011;57712;48.752;11.348;2022-08-05T06:42:36;9.02;;;5.28;;
70303;SDS011;57712;48.752;11.348;2022-08-05T06:45:05;8.27;;;5.72;;
70303;SDS011;57712;48.752;11.348;2022-08-05T06:47:34;9.95;;;5.93;;
70303;SDS011;57712;48.752;11.348;2022-08-05T06:50:21;8.20;;;5.55;;
70303;SDS011;57712;48.752;11.348;2022-08-05T06:52:48;9.53;;;5.77;;
70303;SDS011;57712;48.752;11.348;2022-08-05T06:55:35;8.10;;;5.93;;
70303;SDS011;57712;48.752;11.348;2022-08-05T06:58:02;8.13;;;5.75;;
70303;SDS011;57712;48.752;11.348;2022-08-05T07:00:49;9.00;;;6.05;;
70303;SDS011;57712;48.752;11.348;2022-08-05T07:03:16;10.75;;;5.93;;
70303;SDS011;57712;48.752;11.348;2022-08-05T07:05:43;9.30;;;5.33;;
70303;SDS011;57712;48.752;11.348;2022-08-05T07:08:11;10.10;;;5.38;;
70303;SDS011;57712;48.752;11.348;2022-08-05T07:10:38;13.13;;;6.10;;
70303;SDS011;57712;48.752;11.348;2022-08-05T07:13:18;9.88;;;5.53;;
70303;SDS011;57712;48.752;11.348;2022-08-05T07:16:25;9.38;;;6.55;;
70303;SDS011;57712;48.752;11.348;2022-08-05T07:19:33;9.87;;;5.47;;
70303;SDS011;57712;48.752;11.348;2022-08-05T07:22:20;6.97;;;5.35;;
70303;SDS011;57712;48.752;11.348;2022-08-05T07:25:01;7.28;;;5.55;;
70303;SDS011;57712;48.752;11.348;2022-08-05T07:27:49;9.68;;;5.53;;
70303;SDS011;57712;48.752;11.348;2022-08-05T07:30:27;7.05;;;5.32;;
70303;SDS011;57712;48.752;11.348;2022-08-05T07:33:00;8.13;;;5.17;;
70303;SDS011;57712;48.752;11.348;2022-08-05T07:35:36;8.05;;;5.00;;
70303;SDS011;57712;48.752;11.348;2022-08-05T07:38:26;7.68;;;5.47;;
70303;SDS011;57712;48.752;11.348;2022-08-05T07:41:04;8.68;;;4.63;;
70303;SDS011;57712;48.752;11.348;2022-08-05T07:43:52;9.80;;;4.30;;
70303;SDS011;57712;48.752;11.348;2022-08-05T07:46:22;7.10;;;3.57;;
70303;SDS011;57712;48.752;11.348;2022-08-05T07:48:56;11.68;;;3.92;;
70303;SDS011;57712;48.752;11.348;2022-08-05T07:51:33;8.55;;;4.68;;
70303;SDS011;57712;48.752;11.348;2022-08-05T07:54:19;9.93;;;4.00;;
70303;SDS011;57712;48.752;11.348;2022-08-05T07:56:52;10.48;;;3.90;;
70303;SDS011;57712;48.752;11.348;2022-08-05T07:59:39;6.03;;;3.47;;
70303;SDS011;57712;48.752;11.348;2022-08-05T08:02:07;8.25;;;3.53;;
70303;SDS011;57712;48.752;11.348;2022-08-05T08:04:43;7.47;;;3.70;;
70303;SDS011;57712;48.752;11.348;2022-08-05T08:07:14;9.52;;;3.80;;
70303;SDS011;57712;48.752;11.348;2022-08-05T08:09:43;22.90;;;4.13;;
70303;SDS011;57712;48.752;11.348;2022-08-05T08:12:11;6.67;;;3.33;;
70303;SDS011;57712;48.752;11.348;2022-08-05T08:14:59;8.15;;;3.28;;
70303;SDS011;57712;48.752;11.348;2022-08-05T08:17:28;10.30;;;4.18;;
70303;SDS011;57712;48.752;11.348;2022-08-05T08:19:55;5.88;;;3.00;;
70303;SDS011;57712;48.752;11.348;2022-08-05T08:22:42;9.45;;;3.55;;
70303;SDS011;57712;48.752;11.348;2022-08-05T08:25:09;7.73;;;3.30;;
70303;SDS011;57712;48.752;11.348;2022-08-05T08:27:41;8.45;;;2.83;;
70303;SDS011;57712;48.752;11.348;2022-08-05T08:30:16;9.13;;;3.38;;
70303;SDS011;57712;48.752;11.348;2022-08-05T08:32:59;5.80;;;3.33;;
70303;SDS011;57712;48.752;11.348;2022-08-05T08:35:33;9.23;;;2.95;;
70303;SDS011;57712;48.752;11.348;2022-08-05T08:38:06;8.13;;;2.97;;
70303;SDS011;57712;48.752;11.348;2022-08-05T08:40:36;6.25;;;3.08;;
70303;SDS011;57712;48.752;11.348;2022-08-05T08:43:03;10.50;;;3.67;;
70303;SDS011;57712;48.752;11.348;2022-08-05T08:45:51;5.53;;;2.47;;
70303;SDS011;57712;48.752;11.348;2022-08-05T08:48:19;8.32;;;3.03;;
70303;SDS011;57712;48.752;11.348;2022-08-05T08:51:06;6.77;;;2.70;;
70303;SDS011;57712;48.752;11.348;2022-08-05T08:53:53;7.50;;;2.53;;
70303;SDS011;57712;48.752;11.348;2022-08-05T08:56:21;10.25;;;3.03;;
70303;SDS011;57712;48.752;11.348;2022-08-05T08:58:52;9.48;;;2.50;;
70303;SDS011;57712;48.752;11.348;2022-08-05T09:01:19;6.28;;;2.33;;
70303;SDS011;57712;48.752;11.348;2022-08-05T09:03:48;7.53;;;2.53;;
70303;SDS011;57712;48.752;11.348;2022-08-05T09:06:23;6.18;;;2.38;;
70303;SDS011;57712;48.752;11.348;2022-08-05T09:08:55;6.07;;;2.90;;
70303;SDS011;57712;48.752;11.348;2022-08-05T09:11:23;6.60;;;2.60;;
70303;SDS011;57712;48.752;11.348;2022-08-05T09:14:10;7.65;;;2.55;;
70303;SDS011;57712;48.752;11.348;2022-08-05T09:17:01;5.90;;;2.50;;
70303;SDS011;57712;48.752;11.348;2022-08-05T09:19:33;7.70;;;2.90;;
70303;SDS011;57712;48.752;11.348;2022-08-05T09:22:20;7.40;;;2.92;;
70303;SDS011;57712;48.752;11.348;2022-08-05T09:24:58;6.00;;;2.60;;
70303;SDS011;57712;48.752;11.348;2022-08-05T09:27:32;11.02;;;3.28;;
70303;SDS011;57712;48.752;11.348;2022-08-05T09:30:25;5.57;;;2.90;;
70303;SDS011;57712;48.752;11.348;2022-08-05T09:32:51;7.28;;;2.47;;
70303;SDS011;57712;48.752;11.348;2022-08-05T09:35:19;9.48;;;3.28;;
70303;SDS011;57712;48.752;11.348;2022-08-05T09:37:52;7.38;;;2.85;;
70303;SDS011;57712;48.752;11.348;2022-08-05T09:40:40;7.32;;;2.65;;
70303;SDS011;57712;48.752;11.348;2022-08-05T09:43:28;8.43;;;2.67;;
70303;SDS011;57712;48.752;11.348;2022-08-05T09:46:07;10.75;;;4.72;;
70303;SDS011;57712;48.752;11.348;2022-08-05T09:48:53;18.45;;;3.92;;
70303;SDS011;57712;48.752;11.348;2022-08-05T09:51:35;7.40;;;2.78;;
70303;SDS011;57712;48.752;11.348;2022-08-05T09:54:05;14.63;;;4.10;;
70303;SDS011;57712;48.752;11.348;2022-08-05T09:56:35;7.23;;;2.80;;
70303;SDS011;57712;48.752;11.348;2022-08-05T09:59:04;7.75;;;2.55;;
70303;SDS011;57712;48.752;11.348;2022-08-05T10:01:42;7.35;;;3.05;;
70303;SDS011;57712;48.752;11.348;2022-08-05T10:04:12;6.88;;;2.65;;
70303;SDS011;57712;48.752;11.348;2022-08-05T10:06:52;5.90;;;2.50;;
70303;SDS011;57712;48.752;11.348;2022-08-05T10:09:25;6.40;;;2.53;;
70303;SDS011;57712;48.752;11.348;2022-08-05T10:12:05;5.13;;;2.42;;
70303;SDS011;57712;48.752;11.348;2022-08-05T10:15:03;4.97;;;2.40;;
70303;SDS011;57712;48.752;11.348;2022-08-05T10:17:42;6.75;;;3.20;;
70303;SDS011;57712;48.752;11.348;2022-08-05T10:20:21;7.72;;;2.60;;
70303;SDS011;57712;48.752;11.348;2022-08-05T10:22:50;5.30;;;2.33;;
70303;SDS011;57712;48.752;11.348;2022-08-05T10:25:17;5.20;;;2.40;;
70303;SDS011;57712;48.752;11.348;2022-08-05T10:27:45;6.30;;;2.58;;
70303;SDS011;57712;48.752;11.348;2022-08-05T10:30:32;7.18;;;2.53;;
70303;SDS011;57712;48.752;11.348;2022-08-05T10:33:22;4.85;;;2.70;;
70303;SDS011;57712;48.752;11.348;2022-08-05T10:35:54;6.13;;;3.20;;
70303;SDS011;57712;48.752;11.348;2022-08-05T10:38:25;5.82;;;2.47;;
70303;SDS011;57712;48.752;11.348;2022-08-05T10:41:19;6.88;;;3.50;;
70303;SDS011;57712;48.752;11.348;2022-08-05T10:44:12;5.65;;;2.35;;
70303;SDS011;57712;48.752;11.348;2022-08-05T10:49:20;5.30;;;2.20;;
70303;SDS011;57712;48.752;11.348;2022-08-05T10:51:53;4.85;;;2.95;;
70303;SDS011;57712;48.752;11.348;2022-08-05T10:54:47;5.47;;;2.80;;
70303;SDS011;57712;48.752;11.348;2022-08-05T10:57:41;6.65;;;2.17;;
70303;SDS011;57712;48.752;11.348;2022-08-05T11:00:11;4.68;;;2.47;;
70303;SDS011;57712;48.752;11.348;2022-08-05T11:06:00;4.45;;;2.33;;
70303;SDS011;57712;48.752;11.348;2022-08-05T11:08:30;4.85;;;2.20;;
70303;SDS011;57712;48.752;11.348;2022-08-05T11:11:46;4.00;;;1.80;;
70303;SDS011;57712;48.752;11.348;2022-08-05T11:14:10;5.50;;;2.72;;
70303;SDS011;57712;48.752;11.348;2022-08-05T11:16:38;5.37;;;2.40;;
70303;SDS011;57712;48.752;11.348;2022-08-05T11:19:25;5.53;;;3.10;;
70303;SDS011;57712;48.752;11.348;2022-08-05T11:33:34;4.13;;;2.60;;
70303;SDS011;57712;48.752;11.348;2022-08-05T11:36:18;4.05;;;2.30;;
70303;SDS011;57712;48.752;11.348;2022-08-05T11:39:08;4.88;;;2.65;;
70303;SDS011;57712;48.752;11.348;2022-08-05T11:41:35;5.18;;;2.50;;
70303;SDS011;57712;48.752;11.348;2022-08-05T11:44:23;4.83;;;2.40;;
70303;SDS011;57712;48.752;11.348;2022-08-05T11:47:19;5.22;;;2.67;;
70303;SDS011;57712;48.752;11.348;2022-08-05T11:50:07;4.90;;;2.35;;
70303;SDS011;57712;48.752;11.348;2022-08-05T11:52:39;4.82;;;2.47;;
70303;SDS011;57712;48.752;11.348;2022-08-05T11:55:09;5.25;;;2.72;;
70303;SDS011;57712;48.752;11.348;2022-08-05T11:57:37;5.70;;;2.80;;
70303;SDS011;57712;48.752;11.348;2022-08-05T12:00:30;6.32;;;2.53;;
70303;SDS011;57712;48.752;11.348;2022-08-05T12:03:16;5.25;;;2.28;;
70303;SDS011;57712;48.752;11.348;2022-08-05T12:05:57;5.43;;;2.28;;
70303;SDS011;57712;48.752;11.348;2022-08-05T12:08:44;5.38;;;2.22;;
70303;SDS011;57712;48.752;11.348;2022-08-05T12:14:05;4.43;;;2.42;;
70303;SDS011;57712;48.752;11.348;2022-08-05T12:16:39;6.18;;;2.70;;
70303;SDS011;57712;48.752;11.348;2022-08-05T12:19:11;5.47;;;2.60;;
70303;SDS011;57712;48.752;11.348;2022-08-05T12:21:58;6.07;;;2.40;;
70303;SDS011;57712;48.752;11.348;2022-08-05T12:24:26;5.03;;;2.00;;
70303;SDS011;57712;48.752;11.348;2022-08-05T12:26:53;5.28;;;2.03;;
70303;SDS011;57712;48.752;11.348;2022-08-05T12:29:20;5.18;;;2.75;;
70303;SDS011;57712;48.752;11.348;2022-08-05T12:31:55;4.88;;;2.17;;
70303;SDS011;57712;48.752;11.348;2022-08-05T12:34:35;5.60;;;2.53;;
70303;SDS011;57712;48.752;11.348;2022-08-05T12:37:06;4.50;;;2.33;;
70303;SDS011;57712;48.752;11.348;2022-08-05T12:39:55;5.07;;;2.20;;
70303;SDS011;57712;48.752;11.348;2022-08-05T12:42:35;5.53;;;2.90;;
70303;SDS011;57712;48.752;11.348;2022-08-05T12:45:04;6.72;;;2.45;;
70303;SDS011;57712;48.752;11.348;2022-08-05T12:47:35;4.10;;;2.10;;
70303;SDS011;57712;48.752;11.348;2022-08-05T12:50:12;5.60;;;2.13;;
70303;SDS011;57712;48.752;11.348;2022-08-05T12:52:40;5.30;;;2.60;;
70303;SDS011;57712;48.752;11.348;2022-08-05T12:55:21;4.75;;;3.10;;
70303;SDS011;57712;48.752;11.348;2022-08-05T12:57:51;5.50;;;2.50;;
70303;SDS011;57712;48.752;11.348;2022-08-05T13:00:43;5.07;;;2.65;;
70303;SDS011;57712;48.752;11.348;2022-08-05T13:03:33;4.40;;;2.13;;
70303;SDS011;57712;48.752;11.348;2022-08-05T13:06:12;5.10;;;2.00;;
70303;SDS011;57712;48.752;11.348;2022-08-05T13:08:41;4.63;;;2.47;;
70303;SDS011;57712;48.752;11.348;2022-08-05T13:11:18;4.40;;;2.47;;
70303;SDS011;57712;48.752;11.348;2022-08-05T13:16:52;5.83;;;2.53;;
70303;SDS011;57712;48.752;11.348;2022-08-05T13:19:25;4.70;;;1.83;;
70303;SDS011;57712;48.752;11.348;2022-08-05T13:22:13;5.20;;;2.97;;
70303;SDS011;57712;48.752;11.348;2022-08-05T13:24:54;4.45;;;2.55;;
70303;SDS011;57712;48.752;11.348;2022-08-05T13:27:24;6.28;;;2.60;;
70303;SDS011;57712;48.752;11.348;2022-08-05T13:30:04;5.73;;;2.07;;
70303;SDS011;57712;48.752;11.348;2022-08-05T13:32:53;5.30;;;2.22;;
70303;SDS011;57712;48.752;11.348;2022-08-05T13:35:21;6.15;;;2.28;;
70303;SDS011;57712;48.752;11.348;2022-08-05T13:38:08;4.78;;;2.25;;
70303;SDS011;57712;48.752;11.348;2022-08-05T13:40:45;5.07;;;2.38;;
70303;SDS011;57712;48.752;11.348;2022-08-05T13:43:17;5.17;;;2.60;;
70303;SDS011;57712;48.752;11.348;2022-08-05T13:45:47;4.30;;;2.20;;
70303;SDS011;57712;48.752;11.348;2022-08-05T13:48:16;5.63;;;2.38;;
70303;SDS011;57712;48.752;11.348;2022-08-05T13:51:09;5.70;;;2.50;;
70303;SDS011;57712;48.752;11.348;2022-08-05T13:53:39;4.38;;;2.13;;
70303;SDS011;57712;48.752;11.348;2022-08-05T13:56:13;5.10;;;1.80;;
70303;SDS011;57712;48.752;11.348;2022-08-05T13:58:44;4.45;;;2.22;;
70303;SDS011;57712;48.752;11.348;2022-08-05T14:01:18;4.43;;;2.15;;
70303;SDS011;57712;48.752;11.348;2022-08-05T14:04:01;5.07;;;2.33;;
70303;SDS011;57712;48.752;11.348;2022-08-05T14:06:46;6.30;;;2.85;;
70303;SDS011;57712;48.752;11.348;2022-08-05T14:09:23;6.10;;;1.67;;
70303;SDS011;57712;48.752;11.348;2022-08-05T14:11:54;4.68;;;2.00;;
70303;SDS011;57712;48.752;11.348;2022-08-05T14:14:29;6.32;;;1.95;;
70303;SDS011;57712;48.752;11.348;2022-08-05T14:16:59;4.70;;;2.03;;
70303;SDS011;57712;48.752;11.348;2022-08-05T14:19:25;5.32;;;2.45;;
70303;SDS011;57712;48.752;11.348;2022-08-05T14:21:53;4.00;;;2.13;;
70303;SDS011;57712;48.752;11.348;2022-08-05T14:24:36;5.75;;;2.45;;
70303;SDS011;57712;48.752;11.348;2022-08-05T14:27:05;5.88;;;2.28;;
70303;SDS011;57712;48.752;11.348;2022-08-05T14:29:43;6.75;;;2.05;;
70303;SDS011;57712;48.752;11.348;2022-08-05T14:32:16;4.53;;;2.33;;
70303;SDS011;57712;48.752;11.348;2022-08-05T14:34:53;6.17;;;2.60;;
70303;SDS011;57712;48.752;11.348;2022-08-05T14:37:22;6.03;;;1.90;;
70303;SDS011;57712;48.752;11.348;2022-08-05T14:40:09;8.40;;;2.83;;
70303;SDS011;57712;48.752;11.348;2022-08-05T14:42:41;3.92;;;2.05;;
70303;SDS011;57712;48.752;11.348;2022-08-05T14:45:08;5.15;;;2.30;;
70303;SDS011;57712;48.752;11.348;2022-08-05T14:47:35;5.47;;;2.10;;
70303;SDS011;57712;48.752;11.348;2022-08-05T14:50:22;4.90;;;2.30;;
70303;SDS011;57712;48.752;11.348;2022-08-05T14:52:50;4.97;;;1.92;;
70303;SDS011;57712;48.752;11.348;2022-08-05T14:55:24;5.50;;;2.63;;
70303;SDS011;57712;48.752;11.348;2022-08-05T14:58:04;6.13;;;2.20;;
70303;SDS011;57712;48.752;11.348;2022-08-05T15:00:37;5.50;;;1.77;;
70303;SDS011;57712;48.752;11.348;2022-08-05T15:03:25;4.10;;;1.85;;
70303;SDS011;57712;48.752;11.348;2022-08-05T15:06:04;5.90;;;2.30;;
70303;SDS011;57712;48.752;11.348;2022-08-05T15:08:39;4.30;;;2.00;;
70303;SDS011;57712;48.752;11.348;2022-08-05T15:11:26;5.90;;;3.00;;
70303;SDS011;57712;48.752;11.348;2022-08-05T15:14:13;4.93;;;2.83;;
70303;SDS011;57712;48.752;11.348;2022-08-05T15:17:02;5.32;;;2.67;;
70303;SDS011;57712;48.752;11.348;2022-08-05T15:19:30;5.55;;;2.92;;
70303;SDS011;57712;48.752;11.348;2022-08-05T15:21:57;4.35;;;1.95;;
70303;SDS011;57712;48.752;11.348;2022-08-05T15:24:26;4.72;;;2.40;;
70303;SDS011;57712;48.752;11.348;2022-08-05T15:26:54;4.90;;;2.47;;
70303;SDS011;57712;48.752;11.348;2022-08-05T15:29:22;4.53;;;2.42;;
70303;SDS011;57712;48.752;11.348;2022-08-05T15:31:54;5.18;;;3.22;;
70303;SDS011;57712;48.752;11.348;2022-08-05T15:34:21;4.60;;;2.13;;
70303;SDS011;57712;48.752;11.348;2022-08-05T15:36:58;5.30;;;2.28;;
70303;SDS011;57712;48.752;11.348;2022-08-05T15:39:32;3.90;;;2.10;;
70303;SDS011;57712;48.752;11.348;2022-08-05T15:42:19;5.18;;;2.58;;
70303;SDS011;57712;48.752;11.348;2022-08-05T15:45:05;5.50;;;2.42;;
70303;SDS011;57712;48.752;11.348;2022-08-05T15:47:35;5.15;;;2.60;;
70303;SDS011;57712;48.752;11.348;2022-08-05T15:50:02;4.20;;;2.40;;
70303;SDS011;57712;48.752;11.348;2022-08-05T15:52:32;5.33;;;2.37;;
70303;SDS011;57712;48.752;11.348;2022-08-05T15:55:17;4.25;;;2.40;;
70303;SDS011;57712;48.752;11.348;2022-08-05T15:57:49;9.68;;;2.53;;
70303;SDS011;57712;48.752;11.348;2022-08-05T16:00:16;4.65;;;2.17;;
70303;SDS011;57712;48.752;11.348;2022-08-05T16:03:03;5.45;;;2.47;;
70303;SDS011;57712;48.752;11.348;2022-08-05T16:05:30;5.00;;;2.40;;
70303;SDS011;57712;48.752;11.348;2022-08-05T16:07:57;6.80;;;2.22;;
70303;SDS011;57712;48.752;11.348;2022-08-05T16:10:25;4.57;;;2.50;;